sensor_id;sensor_type;location;lat;lon;timestamp;temperature;humidity
8338;DHT22;4206;48.634;9.516;2023-11-19T00:00:09;7.80;99.90
8338;DHT22;4206;48.634;9.516;2023-11-19T00:02:39;7.80;99.90
8338;DHT22;4206;48.634;9.516;2023-11-19T00:05:07;7.80;99.90
8338;DHT22;4206;48.634;9.516;2023-11-19T00:07:36;7.90;99.90
8338;DHT22;4206;48.634;9.516;2023-11-19T00:10:04;7.80;99.90
8338;DHT22;4206;48.634;9.516;2023-11-19T00:12:33;7.90;99.90
8338;DHT22;4206;48.634;9.516;2023-11-19T00:15:00;7.90;99.90
8338;DHT22;4206;48.634;9.516;2023-11-19T00:17:28;7.90;99.90
8338;DHT22;4206;48.634;9.516;2023-11-19T00:19:55;7.90;99.90
8338;DHT22;4206;48.634;9.516;2023-11-19T00:22:22;7.70;99.90
8338;DHT22;4206;48.634;9.516;2023-11-19T00:24:49;8.00;99.90
8338;DHT22;4206;48.634;9.516;2023-11-19T00:27:16;7.90;99.90
8338;DHT22;4206;48.634;9.516;2023-11-19T00:29:44;8.00;99.90
8338;DHT22;4206;48.634;9.516;2023-11-19T00:32:11;8.00;99.90
8338;DHT22;4206;48.634;9.516;2023-11-19T00:34:38;8.00;99.90
8338;DHT22;4206;48.634;9.516;2023-11-19T00:37:05;8.00;99.90
8338;DHT22;4206;48.634;9.516;2023-11-19T00:39:33;8.00;99.90
8338;DHT22;4206;48.634;9.516;2023-11-19T00:42:00;8.00;99.90
8338;DHT22;4206;48.634;9.516;2023-11-19T00:44:27;8.00;99.90
8338;DHT22;4206;48.634;9.516;2023-11-19T00:46:54;8.10;99.90
8338;DHT22;4206;48.634;9.516;2023-11-19T00:49:21;8.00;99.90
8338;DHT22;4206;48.634;9.516;2023-11-19T00:51:48;8.00;99.90
8338;DHT22;4206;48.634;9.516;2023-11-19T00:54:16;8.10;99.90
8338;DHT22;4206;48.634;9.516;2023-11-19T00:56:43;8.00;99.90
8338;DHT22;4206;48.634;9.516;2023-11-19T00:59:11;8.10;99.90
8338;DHT22;4206;48.634;9.516;2023-11-19T01:01:38;8.10;99.90
8338;DHT22;4206;48.634;9.516;2023-11-19T01:04:05;8.30;99.90
8338;DHT22;4206;48.634;9.516;2023-11-19T01:06:33;8.20;99.90
8338;DHT22;4206;48.634;9.516;2023-11-19T01:08:59;8.20;99.90
8338;DHT22;4206;48.634;9.516;2023-11-19T01:11:27;8.10;99.90
8338;DHT22;4206;48.634;9.516;2023-11-19T01:13:54;8.40;99.90
8338;DHT22;4206;48.634;9.516;2023-11-19T01:16:21;8.30;99.90
8338;DHT22;4206;48.634;9.516;2023-11-19T01:18:49;8.30;99.90
8338;DHT22;4206;48.634;9.516;2023-11-19T01:21:17;8.30;99.90
8338;DHT22;4206;48.634;9.516;2023-11-19T01:23:44;8.30;99.90
8338;DHT22;4206;48.634;9.516;2023-11-19T01:26:14;8.40;99.90
8338;DHT22;4206;48.634;9.516;2023-11-19T01:28:41;8.40;99.90
8338;DHT22;4206;48.634;9.516;2023-11-19T01:31:15;8.40;99.90
8338;DHT22;4206;48.634;9.516;2023-11-19T01:33:42;8.40;99.90
8338;DHT22;4206;48.634;9.516;2023-11-19T01:36:13;8.40;99.90
8338;DHT22;4206;48.634;9.516;2023-11-19T01:38:40;8.50;99.90
8338;DHT22;4206;48.634;9.516;2023-11-19T01:41:07;8.50;99.90
8338;DHT22;4206;48.634;9.516;2023-11-19T01:43:36;8.50;99.90
8338;DHT22;4206;48.634;9.516;2023-11-19T01:46:05;8.50;99.90
8338;DHT22;4206;48.634;9.516;2023-11-19T01:48:34;8.60;99.90
8338;DHT22;4206;48.634;9.516;2023-11-19T01:51:01;8.50;99.90
8338;DHT22;4206;48.634;9.516;2023-11-19T01:53:30;8.70;99.90
8338;DHT22;4206;48.634;9.516;2023-11-19T01:55:58;8.70;99.90
8338;DHT22;4206;48.634;9.516;2023-11-19T01:58:25;8.70;99.90
8338;DHT22;4206;48.634;9.516;2023-11-19T02:00:53;8.80;99.90
8338;DHT22;4206;48.634;9.516;2023-11-19T02:03:21;8.90;99.90
8338;DHT22;4206;48.634;9.516;2023-11-19T02:05:49;9.00;99.90
8338;DHT22;4206;48.634;9.516;2023-11-19T02:08:17;9.10;99.90
8338;DHT22;4206;48.634;9.516;2023-11-19T02:10:44;8.90;99.90
8338;DHT22;4206;48.634;9.516;2023-11-19T02:13:11;9.10;99.90
8338;DHT22;4206;48.634;9.516;2023-11-19T02:15:41;9.20;99.90
8338;DHT22;4206;48.634;9.516;2023-11-19T02:18:24;9.40;99.90
8338;DHT22;4206;48.634;9.516;2023-11-19T02:20:55;9.20;99.90
8338;DHT22;4206;48.634;9.516;2023-11-19T02:23:23;9.40;99.90
8338;DHT22;4206;48.634;9.516;2023-11-19T02:26:02;9.50;99.90
8338;DHT22;4206;48.634;9.516;2023-11-19T02:28:29;9.40;99.90
8338;DHT22;4206;48.634;9.516;2023-11-19T02:30:56;9.40;99.90
8338;DHT22;4206;48.634;9.516;2023-11-19T02:33:24;9.30;99.90
8338;DHT22;4206;48.634;9.516;2023-11-19T02:35:51;9.50;99.90
8338;DHT22;4206;48.634;9.516;2023-11-19T02:38:19;9.50;99.90
8338;DHT22;4206;48.634;9.516;2023-11-19T02:40:53;9.50;99.90
8338;DHT22;4206;48.634;9.516;2023-11-19T02:43:22;9.50;99.90
8338;DHT22;4206;48.634;9.516;2023-11-19T02:45:52;9.50;99.90
8338;DHT22;4206;48.634;9.516;2023-11-19T02:48:23;9.40;99.90
8338;DHT22;4206;48.634;9.516;2023-11-19T02:50:52;9.40;99.90
8338;DHT22;4206;48.634;9.516;2023-11-19T02:53:23;9.30;99.90
8338;DHT22;4206;48.634;9.516;2023-11-19T02:55:53;9.40;99.90
8338;DHT22;4206;48.634;9.516;2023-11-19T02:58:22;9.40;99.90
8338;DHT22;4206;48.634;9.516;2023-11-19T03:00:52;9.50;99.90
8338;DHT22;4206;48.634;9.516;2023-11-19T03:03:22;9.50;99.90
8338;DHT22;4206;48.634;9.516;2023-11-19T03:05:49;9.50;99.90
8338;DHT22;4206;48.634;9.516;2023-11-19T03:08:20;9.50;99.90
8338;DHT22;4206;48.634;9.516;2023-11-19T03:10:49;9.50;99.90
8338;DHT22;4206;48.634;9.516;2023-11-19T03:13:18;9.50;99.90
8338;DHT22;4206;48.634;9.516;2023-11-19T03:15:46;9.60;99.90
8338;DHT22;4206;48.634;9.516;2023-11-19T03:18:14;9.40;99.90
8338;DHT22;4206;48.634;9.516;2023-11-19T03:20:41;9.70;99.90
8338;DHT22;4206;48.634;9.516;2023-11-19T03:23:12;9.60;99.90
8338;DHT22;4206;48.634;9.516;2023-11-19T03:25:39;9.50;99.90
8338;DHT22;4206;48.634;9.516;2023-11-19T03:28:06;9.50;99.90
8338;DHT22;4206;48.634;9.516;2023-11-19T03:30:33;9.60;99.90
8338;DHT22;4206;48.634;9.516;2023-11-19T03:33:01;9.60;99.90
8338;DHT22;4206;48.634;9.516;2023-11-19T03:35:30;9.60;99.90
8338;DHT22;4206;48.634;9.516;2023-11-19T03:37:57;9.60;99.90
8338;DHT22;4206;48.634;9.516;2023-11-19T03:40:24;9.70;99.90
8338;DHT22;4206;48.634;9.516;2023-11-19T03:42:52;9.70;99.90
8338;DHT22;4206;48.634;9.516;2023-11-19T03:45:19;9.70;99.90
8338;DHT22;4206;48.634;9.516;2023-11-19T03:47:46;9.60;99.90
8338;DHT22;4206;48.634;9.516;2023-11-19T03:50:13;9.70;99.90
8338;DHT22;4206;48.634;9.516;2023-11-19T03:52:42;9.70;99.90
8338;DHT22;4206;48.634;9.516;2023-11-19T03:55:10;9.70;99.90
8338;DHT22;4206;48.634;9.516;2023-11-19T03:57:39;9.70;99.90
8338;DHT22;4206;48.634;9.516;2023-11-19T04:00:06;9.80;99.90
8338;DHT22;4206;48.634;9.516;2023-11-19T04:02:37;9.70;99.90
8338;DHT22;4206;48.634;9.516;2023-11-19T04:05:05;9.80;99.90
8338;DHT22;4206;48.634;9.516;2023-11-19T04:07:32;9.80;99.90
8338;DHT22;4206;48.634;9.516;2023-11-19T04:09:59;9.80;99.90
8338;DHT22;4206;48.634;9.516;2023-11-19T04:12:26;9.80;99.90
8338;DHT22;4206;48.634;9.516;2023-11-19T04:14:53;9.80;99.90
8338;DHT22;4206;48.634;9.516;2023-11-19T04:17:23;9.80;99.90
8338;DHT22;4206;48.634;9.516;2023-11-19T04:19:50;9.90;99.90
8338;DHT22;4206;48.634;9.516;2023-11-19T04:22:17;9.90;99.90
8338;DHT22;4206;48.634;9.516;2023-11-19T04:24:44;9.90;99.90
8338;DHT22;4206;48.634;9.516;2023-11-19T04:27:12;9.90;99.90
8338;DHT22;4206;48.634;9.516;2023-11-19T04:29:40;9.90;99.90
8338;DHT22;4206;48.634;9.516;2023-11-19T04:32:07;9.90;99.90
8338;DHT22;4206;48.634;9.516;2023-11-19T04:34:34;10.00;99.90
8338;DHT22;4206;48.634;9.516;2023-11-19T04:37:01;10.00;99.90
8338;DHT22;4206;48.634;9.516;2023-11-19T04:39:39;10.00;99.90
8338;DHT22;4206;48.634;9.516;2023-11-19T04:42:06;10.00;99.90
8338;DHT22;4206;48.634;9.516;2023-11-19T04:44:33;10.10;99.90
8338;DHT22;4206;48.634;9.516;2023-11-19T04:47:00;10.00;99.90
8338;DHT22;4206;48.634;9.516;2023-11-19T04:49:27;10.10;99.90
8338;DHT22;4206;48.634;9.516;2023-11-19T04:51:54;10.10;99.90
8338;DHT22;4206;48.634;9.516;2023-11-19T04:54:21;10.20;99.90
8338;DHT22;4206;48.634;9.516;2023-11-19T04:56:48;10.20;99.90
8338;DHT22;4206;48.634;9.516;2023-11-19T04:59:15;10.20;99.90
8338;DHT22;4206;48.634;9.516;2023-11-19T05:01:46;10.30;99.90
8338;DHT22;4206;48.634;9.516;2023-11-19T05:04:13;10.20;99.90
8338;DHT22;4206;48.634;9.516;2023-11-19T05:06:42;10.40;99.90
8338;DHT22;4206;48.634;9.516;2023-11-19T05:09:08;10.20;99.90
8338;DHT22;4206;48.634;9.516;2023-11-19T05:11:35;10.40;99.90
8338;DHT22;4206;48.634;9.516;2023-11-19T05:14:16;10.40;99.90
8338;DHT22;4206;48.634;9.516;2023-11-19T05:16:43;10.40;99.90
8338;DHT22;4206;48.634;9.516;2023-11-19T05:19:10;10.40;99.90
8338;DHT22;4206;48.634;9.516;2023-11-19T05:21:37;10.40;99.90
8338;DHT22;4206;48.634;9.516;2023-11-19T05:24:04;10.40;99.90
8338;DHT22;4206;48.634;9.516;2023-11-19T05:26:31;10.40;99.90
8338;DHT22;4206;48.634;9.516;2023-11-19T05:28:58;10.50;99.90
8338;DHT22;4206;48.634;9.516;2023-11-19T05:31:25;10.40;99.90
8338;DHT22;4206;48.634;9.516;2023-11-19T05:33:52;10.50;99.90
8338;DHT22;4206;48.634;9.516;2023-11-19T05:36:18;10.60;99.90
8338;DHT22;4206;48.634;9.516;2023-11-19T05:38:45;10.70;99.90
8338;DHT22;4206;48.634;9.516;2023-11-19T05:41:12;10.70;99.90
8338;DHT22;4206;48.634;9.516;2023-11-19T05:43:39;10.70;99.90
8338;DHT22;4206;48.634;9.516;2023-11-19T05:46:07;10.70;99.90
8338;DHT22;4206;48.634;9.516;2023-11-19T05:48:38;10.80;99.90
8338;DHT22;4206;48.634;9.516;2023-11-19T05:51:05;10.50;99.90
8338;DHT22;4206;48.634;9.516;2023-11-19T05:53:32;10.70;99.90
8338;DHT22;4206;48.634;9.516;2023-11-19T05:55:59;10.80;99.90
8338;DHT22;4206;48.634;9.516;2023-11-19T05:58:30;10.60;99.90
8338;DHT22;4206;48.634;9.516;2023-11-19T06:00:57;10.80;99.90
8338;DHT22;4206;48.634;9.516;2023-11-19T06:03:26;10.70;99.90
8338;DHT22;4206;48.634;9.516;2023-11-19T06:05:54;10.70;99.90
8338;DHT22;4206;48.634;9.516;2023-11-19T06:08:21;10.70;99.90
8338;DHT22;4206;48.634;9.516;2023-11-19T06:10:48;10.80;99.90
8338;DHT22;4206;48.634;9.516;2023-11-19T06:13:17;10.80;99.90
8338;DHT22;4206;48.634;9.516;2023-11-19T06:16:02;10.90;99.90
8338;DHT22;4206;48.634;9.516;2023-11-19T06:18:29;10.90;99.90
8338;DHT22;4206;48.634;9.516;2023-11-19T06:20:58;11.00;99.90
8338;DHT22;4206;48.634;9.516;2023-11-19T06:23:25;11.00;99.90
8338;DHT22;4206;48.634;9.516;2023-11-19T06:25:52;11.00;99.90
8338;DHT22;4206;48.634;9.516;2023-11-19T06:28:18;11.00;99.90
8338;DHT22;4206;48.634;9.516;2023-11-19T06:30:45;11.10;99.90
8338;DHT22;4206;48.634;9.516;2023-11-19T06:33:15;11.10;99.90
8338;DHT22;4206;48.634;9.516;2023-11-19T06:35:42;11.10;99.90
8338;DHT22;4206;48.634;9.516;2023-11-19T06:38:09;11.10;99.90
8338;DHT22;4206;48.634;9.516;2023-11-19T06:40:35;11.10;99.90
8338;DHT22;4206;48.634;9.516;2023-11-19T06:43:03;11.20;99.90
8338;DHT22;4206;48.634;9.516;2023-11-19T06:45:31;11.20;99.90
8338;DHT22;4206;48.634;9.516;2023-11-19T06:47:58;11.20;99.90
8338;DHT22;4206;48.634;9.516;2023-11-19T06:50:27;11.20;99.90
8338;DHT22;4206;48.634;9.516;2023-11-19T06:52:54;11.20;99.90
8338;DHT22;4206;48.634;9.516;2023-11-19T06:55:21;11.10;99.90
8338;DHT22;4206;48.634;9.516;2023-11-19T06:57:48;11.10;99.90
8338;DHT22;4206;48.634;9.516;2023-11-19T07:00:15;11.10;99.90
8338;DHT22;4206;48.634;9.516;2023-11-19T07:02:42;11.10;99.90
8338;DHT22;4206;48.634;9.516;2023-11-19T07:05:11;11.30;99.90
8338;DHT22;4206;48.634;9.516;2023-11-19T07:07:40;11.10;99.90
8338;DHT22;4206;48.634;9.516;2023-11-19T07:10:07;11.20;99.90
8338;DHT22;4206;48.634;9.516;2023-11-19T07:12:36;11.20;99.90
8338;DHT22;4206;48.634;9.516;2023-11-19T07:15:04;11.20;99.90
8338;DHT22;4206;48.634;9.516;2023-11-19T07:17:31;11.20;99.90
8338;DHT22;4206;48.634;9.516;2023-11-19T07:19:58;11.30;99.90
8338;DHT22;4206;48.634;9.516;2023-11-19T07:22:26;11.30;99.90
8338;DHT22;4206;48.634;9.516;2023-11-19T07:24:56;11.40;99.90
8338;DHT22;4206;48.634;9.516;2023-11-19T07:27:23;11.40;99.90
8338;DHT22;4206;48.634;9.516;2023-11-19T07:30:04;11.50;99.90
8338;DHT22;4206;48.634;9.516;2023-11-19T07:32:31;11.50;99.90
8338;DHT22;4206;48.634;9.516;2023-11-19T07:34:58;11.60;99.90
8338;DHT22;4206;48.634;9.516;2023-11-19T07:37:25;11.60;99.90
8338;DHT22;4206;48.634;9.516;2023-11-19T07:39:52;11.60;99.90
8338;DHT22;4206;48.634;9.516;2023-11-19T07:42:19;11.70;99.90
8338;DHT22;4206;48.634;9.516;2023-11-19T07:44:46;11.70;99.90
8338;DHT22;4206;48.634;9.516;2023-11-19T07:47:13;11.80;99.90
8338;DHT22;4206;48.634;9.516;2023-11-19T07:49:40;11.80;99.90
8338;DHT22;4206;48.634;9.516;2023-11-19T07:52:08;11.90;99.90
8338;DHT22;4206;48.634;9.516;2023-11-19T07:54:47;11.90;99.90
8338;DHT22;4206;48.634;9.516;2023-11-19T07:57:14;11.90;99.90
8338;DHT22;4206;48.634;9.516;2023-11-19T07:59:41;11.90;99.90
8338;DHT22;4206;48.634;9.516;2023-11-19T08:02:08;12.00;99.90
8338;DHT22;4206;48.634;9.516;2023-11-19T08:04:36;11.90;99.90
8338;DHT22;4206;48.634;9.516;2023-11-19T08:07:03;11.90;99.90
8338;DHT22;4206;48.634;9.516;2023-11-19T08:09:30;11.80;99.90
8338;DHT22;4206;48.634;9.516;2023-11-19T08:11:57;11.90;99.90
8338;DHT22;4206;48.634;9.516;2023-11-19T08:14:24;11.80;99.90
8338;DHT22;4206;48.634;9.516;2023-11-19T08:16:51;12.00;99.90
8338;DHT22;4206;48.634;9.516;2023-11-19T08:19:18;12.00;99.90
8338;DHT22;4206;48.634;9.516;2023-11-19T08:21:44;12.00;99.90
8338;DHT22;4206;48.634;9.516;2023-11-19T08:24:11;11.90;99.90
8338;DHT22;4206;48.634;9.516;2023-11-19T08:26:38;12.10;99.90
8338;DHT22;4206;48.634;9.516;2023-11-19T08:29:05;12.10;99.90
8338;DHT22;4206;48.634;9.516;2023-11-19T08:31:32;12.30;99.90
8338;DHT22;4206;48.634;9.516;2023-11-19T08:33:59;12.40;99.90
8338;DHT22;4206;48.634;9.516;2023-11-19T08:36:26;12.50;99.90
8338;DHT22;4206;48.634;9.516;2023-11-19T08:38:54;12.50;99.90
8338;DHT22;4206;48.634;9.516;2023-11-19T08:41:21;12.50;99.90
8338;DHT22;4206;48.634;9.516;2023-11-19T08:43:48;12.60;99.90
8338;DHT22;4206;48.634;9.516;2023-11-19T08:46:15;12.80;99.90
8338;DHT22;4206;48.634;9.516;2023-11-19T08:48:42;12.80;99.90
8338;DHT22;4206;48.634;9.516;2023-11-19T08:51:09;12.90;99.90
8338;DHT22;4206;48.634;9.516;2023-11-19T08:53:35;13.00;99.90
8338;DHT22;4206;48.634;9.516;2023-11-19T08:56:03;13.10;99.90
8338;DHT22;4206;48.634;9.516;2023-11-19T08:58:33;13.20;99.90
8338;DHT22;4206;48.634;9.516;2023-11-19T09:01:01;13.40;99.90
8338;DHT22;4206;48.634;9.516;2023-11-19T09:03:31;13.50;99.90
8338;DHT22;4206;48.634;9.516;2023-11-19T09:06:00;13.80;99.90
8338;DHT22;4206;48.634;9.516;2023-11-19T09:08:28;13.80;99.90
8338;DHT22;4206;48.634;9.516;2023-11-19T09:10:55;13.70;99.90
8338;DHT22;4206;48.634;9.516;2023-11-19T09:13:22;13.80;99.90
8338;DHT22;4206;48.634;9.516;2023-11-19T09:15:55;13.90;99.90
8338;DHT22;4206;48.634;9.516;2023-11-19T09:18:26;14.00;99.90
8338;DHT22;4206;48.634;9.516;2023-11-19T09:20:54;14.10;99.90
8338;DHT22;4206;48.634;9.516;2023-11-19T09:23:21;14.10;99.90
8338;DHT22;4206;48.634;9.516;2023-11-19T09:25:48;14.30;99.90
8338;DHT22;4206;48.634;9.516;2023-11-19T09:28:15;14.40;99.90
8338;DHT22;4206;48.634;9.516;2023-11-19T09:30:42;14.70;99.90
8338;DHT22;4206;48.634;9.516;2023-11-19T09:33:09;15.00;99.90
8338;DHT22;4206;48.634;9.516;2023-11-19T09:35:36;15.00;99.90
8338;DHT22;4206;48.634;9.516;2023-11-19T09:38:03;14.90;99.90
8338;DHT22;4206;48.634;9.516;2023-11-19T09:40:32;15.20;99.90
8338;DHT22;4206;48.634;9.516;2023-11-19T09:42:59;16.10;99.90
8338;DHT22;4206;48.634;9.516;2023-11-19T09:45:27;16.20;99.90
8338;DHT22;4206;48.634;9.516;2023-11-19T09:47:55;15.70;99.90
8338;DHT22;4206;48.634;9.516;2023-11-19T09:50:24;15.30;99.90
8338;DHT22;4206;48.634;9.516;2023-11-19T09:52:51;15.10;99.90
8338;DHT22;4206;48.634;9.516;2023-11-19T09:55:18;14.80;99.90
8338;DHT22;4206;48.634;9.516;2023-11-19T09:57:47;15.00;99.90
8338;DHT22;4206;48.634;9.516;2023-11-19T10:00:15;14.50;99.90
8338;DHT22;4206;48.634;9.516;2023-11-19T10:02:44;14.60;99.90
8338;DHT22;4206;48.634;9.516;2023-11-19T10:05:14;14.40;99.90
8338;DHT22;4206;48.634;9.516;2023-11-19T10:07:42;14.90;99.90
8338;DHT22;4206;48.634;9.516;2023-11-19T10:10:09;15.20;99.90
8338;DHT22;4206;48.634;9.516;2023-11-19T10:12:40;15.10;99.90
8338;DHT22;4206;48.634;9.516;2023-11-19T10:15:24;15.00;99.90
8338;DHT22;4206;48.634;9.516;2023-11-19T10:17:57;14.70;99.90
8338;DHT22;4206;48.634;9.516;2023-11-19T10:20:24;14.90;99.90
8338;DHT22;4206;48.634;9.516;2023-11-19T10:22:53;15.20;99.90
8338;DHT22;4206;48.634;9.516;2023-11-19T10:25:23;15.30;99.90
8338;DHT22;4206;48.634;9.516;2023-11-19T10:27:52;16.00;99.90
8338;DHT22;4206;48.634;9.516;2023-11-19T10:30:23;16.50;99.90
8338;DHT22;4206;48.634;9.516;2023-11-19T10:33:10;16.00;99.90
8338;DHT22;4206;48.634;9.516;2023-11-19T10:35:57;15.70;99.90
8338;DHT22;4206;48.634;9.516;2023-11-19T10:38:27;15.30;99.90
8338;DHT22;4206;48.634;9.516;2023-11-19T10:40:55;15.10;99.90
8338;DHT22;4206;48.634;9.516;2023-11-19T10:43:22;15.10;99.90
8338;DHT22;4206;48.634;9.516;2023-11-19T10:45:50;15.40;99.90
8338;DHT22;4206;48.634;9.516;2023-11-19T10:48:18;15.50;99.90
8338;DHT22;4206;48.634;9.516;2023-11-19T10:50:50;15.70;99.90
8338;DHT22;4206;48.634;9.516;2023-11-19T10:53:20;15.70;99.90
8338;DHT22;4206;48.634;9.516;2023-11-19T10:55:48;16.30;99.90
8338;DHT22;4206;48.634;9.516;2023-11-19T10:58:16;16.20;99.90
8338;DHT22;4206;48.634;9.516;2023-11-19T11:01:02;15.90;99.90
8338;DHT22;4206;48.634;9.516;2023-11-19T11:03:38;15.80;99.90
8338;DHT22;4206;48.634;9.516;2023-11-19T11:06:06;16.50;99.90
8338;DHT22;4206;48.634;9.516;2023-11-19T11:08:36;17.30;99.90
8338;DHT22;4206;48.634;9.516;2023-11-19T11:11:05;17.60;99.90
8338;DHT22;4206;48.634;9.516;2023-11-19T11:13:35;17.80;99.90
8338;DHT22;4206;48.634;9.516;2023-11-19T11:16:04;17.70;99.90
8338;DHT22;4206;48.634;9.516;2023-11-19T11:18:34;17.20;99.90
8338;DHT22;4206;48.634;9.516;2023-11-19T11:21:06;16.90;99.90
8338;DHT22;4206;48.634;9.516;2023-11-19T11:26:51;17.40;99.90
8338;DHT22;4206;48.634;9.516;2023-11-19T11:29:35;17.30;99.90
8338;DHT22;4206;48.634;9.516;2023-11-19T11:38:01;16.00;99.90
8338;DHT22;4206;48.634;9.516;2023-11-19T11:40:38;15.70;99.90
8338;DHT22;4206;48.634;9.516;2023-11-19T11:43:51;15.40;99.90
8338;DHT22;4206;48.634;9.516;2023-11-19T11:50:16;15.10;99.90
8338;DHT22;4206;48.634;9.516;2023-11-19T11:53:51;15.10;99.90
8338;DHT22;4206;48.634;9.516;2023-11-19T11:56:33;15.10;99.90
8338;DHT22;4206;48.634;9.516;2023-11-19T11:59:55;15.00;99.90
8338;DHT22;4206;48.634;9.516;2023-11-19T12:02:41;15.20;99.90
8338;DHT22;4206;48.634;9.516;2023-11-19T12:05:31;14.80;99.90
8338;DHT22;4206;48.634;9.516;2023-11-19T12:08:03;15.00;99.90
8338;DHT22;4206;48.634;9.516;2023-11-19T12:11:01;15.00;99.90
8338;DHT22;4206;48.634;9.516;2023-11-19T12:14:07;15.40;99.90
8338;DHT22;4206;48.634;9.516;2023-11-19T12:17:03;15.80;99.90
8338;DHT22;4206;48.634;9.516;2023-11-19T12:19:30;15.70;99.90
8338;DHT22;4206;48.634;9.516;2023-11-19T12:21:59;16.10;99.90
8338;DHT22;4206;48.634;9.516;2023-11-19T12:24:27;16.10;99.90
8338;DHT22;4206;48.634;9.516;2023-11-19T12:26:54;16.30;99.90
8338;DHT22;4206;48.634;9.516;2023-11-19T12:29:23;17.00;99.90
8338;DHT22;4206;48.634;9.516;2023-11-19T12:31:54;17.60;99.90
8338;DHT22;4206;48.634;9.516;2023-11-19T12:34:21;17.60;99.90
8338;DHT22;4206;48.634;9.516;2023-11-19T12:36:51;17.00;99.90
8338;DHT22;4206;48.634;9.516;2023-11-19T12:39:18;16.70;99.90
8338;DHT22;4206;48.634;9.516;2023-11-19T12:41:50;16.40;99.90
8338;DHT22;4206;48.634;9.516;2023-11-19T12:44:18;15.80;99.90
8338;DHT22;4206;48.634;9.516;2023-11-19T12:46:46;15.70;99.90
8338;DHT22;4206;48.634;9.516;2023-11-19T12:49:13;15.60;99.90
8338;DHT22;4206;48.634;9.516;2023-11-19T12:51:40;16.20;99.90
8338;DHT22;4206;48.634;9.516;2023-11-19T12:54:07;16.90;99.90
8338;DHT22;4206;48.634;9.516;2023-11-19T12:56:35;17.30;99.90
8338;DHT22;4206;48.634;9.516;2023-11-19T12:59:11;18.10;99.90
8338;DHT22;4206;48.634;9.516;2023-11-19T13:01:39;18.40;99.90
8338;DHT22;4206;48.634;9.516;2023-11-19T13:04:23;18.30;99.90
8338;DHT22;4206;48.634;9.516;2023-11-19T13:06:51;18.80;99.90
8338;DHT22;4206;48.634;9.516;2023-11-19T13:09:25;18.70;99.90
8338;DHT22;4206;48.634;9.516;2023-11-19T13:11:53;18.70;99.90
8338;DHT22;4206;48.634;9.516;2023-11-19T13:14:20;18.00;99.90
8338;DHT22;4206;48.634;9.516;2023-11-19T13:16:47;17.30;99.90
8338;DHT22;4206;48.634;9.516;2023-11-19T13:19:15;16.50;99.90
8338;DHT22;4206;48.634;9.516;2023-11-19T13:21:45;16.50;99.90
8338;DHT22;4206;48.634;9.516;2023-11-19T13:24:16;16.10;99.90
8338;DHT22;4206;48.634;9.516;2023-11-19T13:26:43;16.00;99.90
8338;DHT22;4206;48.634;9.516;2023-11-19T13:29:10;15.80;99.90
8338;DHT22;4206;48.634;9.516;2023-11-19T13:31:37;15.70;99.90
8338;DHT22;4206;48.634;9.516;2023-11-19T13:34:05;15.60;99.90
8338;DHT22;4206;48.634;9.516;2023-11-19T13:36:34;15.50;99.90
8338;DHT22;4206;48.634;9.516;2023-11-19T13:39:01;15.60;99.90
8338;DHT22;4206;48.634;9.516;2023-11-19T13:41:28;15.70;99.90
8338;DHT22;4206;48.634;9.516;2023-11-19T13:43:55;15.40;99.90
8338;DHT22;4206;48.634;9.516;2023-11-19T13:46:22;15.30;99.90
8338;DHT22;4206;48.634;9.516;2023-11-19T13:48:49;15.50;99.90
8338;DHT22;4206;48.634;9.516;2023-11-19T13:51:16;15.60;99.90
8338;DHT22;4206;48.634;9.516;2023-11-19T13:53:43;15.40;99.90
8338;DHT22;4206;48.634;9.516;2023-11-19T13:56:13;15.20;99.90
8338;DHT22;4206;48.634;9.516;2023-11-19T13:58:40;15.10;99.90
8338;DHT22;4206;48.634;9.516;2023-11-19T14:01:07;14.80;99.90
8338;DHT22;4206;48.634;9.516;2023-11-19T14:03:34;14.70;99.90
8338;DHT22;4206;48.634;9.516;2023-11-19T14:06:02;14.70;99.90
8338;DHT22;4206;48.634;9.516;2023-11-19T14:08:29;14.60;99.90
8338;DHT22;4206;48.634;9.516;2023-11-19T14:10:56;14.60;99.90
8338;DHT22;4206;48.634;9.516;2023-11-19T14:13:24;14.80;99.90
8338;DHT22;4206;48.634;9.516;2023-11-19T14:15:51;14.50;99.90
8338;DHT22;4206;48.634;9.516;2023-11-19T14:18:18;14.40;99.90
8338;DHT22;4206;48.634;9.516;2023-11-19T14:20:45;14.40;99.90
8338;DHT22;4206;48.634;9.516;2023-11-19T14:23:12;14.40;99.90
8338;DHT22;4206;48.634;9.516;2023-11-19T14:25:39;14.30;99.90
8338;DHT22;4206;48.634;9.516;2023-11-19T14:28:06;14.30;99.90
8338;DHT22;4206;48.634;9.516;2023-11-19T14:30:34;14.30;99.90
8338;DHT22;4206;48.634;9.516;2023-11-19T14:33:01;14.40;99.90
8338;DHT22;4206;48.634;9.516;2023-11-19T14:35:30;14.40;99.90
8338;DHT22;4206;48.634;9.516;2023-11-19T14:37:59;14.30;99.90
8338;DHT22;4206;48.634;9.516;2023-11-19T14:40:26;14.30;99.90
8338;DHT22;4206;48.634;9.516;2023-11-19T14:42:56;14.30;99.90
8338;DHT22;4206;48.634;9.516;2023-11-19T14:45:23;14.30;99.90
8338;DHT22;4206;48.634;9.516;2023-11-19T14:47:49;14.20;99.90
8338;DHT22;4206;48.634;9.516;2023-11-19T14:50:17;14.20;99.90
8338;DHT22;4206;48.634;9.516;2023-11-19T14:52:43;14.30;99.90
8338;DHT22;4206;48.634;9.516;2023-11-19T14:55:11;14.30;99.90
8338;DHT22;4206;48.634;9.516;2023-11-19T14:57:38;14.20;99.90
8338;DHT22;4206;48.634;9.516;2023-11-19T15:00:06;14.20;99.90
8338;DHT22;4206;48.634;9.516;2023-11-19T15:02:41;14.10;99.90
8338;DHT22;4206;48.634;9.516;2023-11-19T15:05:09;14.00;99.90
8338;DHT22;4206;48.634;9.516;2023-11-19T15:07:37;13.90;99.90
8338;DHT22;4206;48.634;9.516;2023-11-19T15:10:05;13.80;99.90
8338;DHT22;4206;48.634;9.516;2023-11-19T15:12:38;13.90;99.90
8338;DHT22;4206;48.634;9.516;2023-11-19T15:15:13;13.80;99.90
8338;DHT22;4206;48.634;9.516;2023-11-19T15:17:40;13.70;99.90
8338;DHT22;4206;48.634;9.516;2023-11-19T15:20:08;13.60;99.90
8338;DHT22;4206;48.634;9.516;2023-11-19T15:22:35;13.70;99.90
8338;DHT22;4206;48.634;9.516;2023-11-19T15:25:02;13.70;99.90
8338;DHT22;4206;48.634;9.516;2023-11-19T15:27:29;13.50;99.90
8338;DHT22;4206;48.634;9.516;2023-11-19T15:29:56;13.50;99.90
8338;DHT22;4206;48.634;9.516;2023-11-19T15:32:23;13.50;99.90
8338;DHT22;4206;48.634;9.516;2023-11-19T15:34:50;13.40;99.90
8338;DHT22;4206;48.634;9.516;2023-11-19T15:37:17;13.40;99.90
8338;DHT22;4206;48.634;9.516;2023-11-19T15:39:44;13.40;99.90
8338;DHT22;4206;48.634;9.516;2023-11-19T15:42:11;13.30;99.90
8338;DHT22;4206;48.634;9.516;2023-11-19T15:44:38;13.40;99.90
8338;DHT22;4206;48.634;9.516;2023-11-19T15:47:06;13.10;99.90
8338;DHT22;4206;48.634;9.516;2023-11-19T15:49:35;13.30;99.90
8338;DHT22;4206;48.634;9.516;2023-11-19T15:52:03;13.20;99.90
8338;DHT22;4206;48.634;9.516;2023-11-19T15:54:31;13.10;99.90
8338;DHT22;4206;48.634;9.516;2023-11-19T15:56:59;13.10;99.90
8338;DHT22;4206;48.634;9.516;2023-11-19T15:59:26;13.00;99.90
8338;DHT22;4206;48.634;9.516;2023-11-19T16:01:53;12.90;99.90
8338;DHT22;4206;48.634;9.516;2023-11-19T16:04:20;12.80;99.90
8338;DHT22;4206;48.634;9.516;2023-11-19T16:06:47;12.70;99.90
8338;DHT22;4206;48.634;9.516;2023-11-19T16:09:14;12.50;99.90
8338;DHT22;4206;48.634;9.516;2023-11-19T16:11:45;12.50;99.90
8338;DHT22;4206;48.634;9.516;2023-11-19T16:14:23;12.30;99.90
8338;DHT22;4206;48.634;9.516;2023-11-19T16:16:51;12.40;99.90
8338;DHT22;4206;48.634;9.516;2023-11-19T16:19:20;12.20;99.90
8338;DHT22;4206;48.634;9.516;2023-11-19T16:21:47;12.10;99.90
8338;DHT22;4206;48.634;9.516;2023-11-19T16:24:14;12.10;99.90
8338;DHT22;4206;48.634;9.516;2023-11-19T16:26:41;12.10;99.90
8338;DHT22;4206;48.634;9.516;2023-11-19T16:29:08;12.20;99.90
8338;DHT22;4206;48.634;9.516;2023-11-19T16:31:36;12.30;99.90